Terminal Aerodrome Forecast
Issued by NWS

Home | Current Version | Previous Version | Text Only | Print | Product List | Glossary Off
Versions: 1 2 3 4 5 6 7 8 9 10 11 12 13 14 15 16 17 18 19 20 21 22 23

000
FTUS43 KBIS 260200 AAA
TAFMOT
TAF AMD
KMOT 260240Z 2603/2624 01011KT 6SM -SN OVC025
      TEMPO 2603/2605 2SM -SN BKN015
     FM260600 35007KT P6SM BKN050
     FM261500 32005KT P6SM SCT045
     FM262000 36005KT P6SM SCT250=

USA.gov is the U.S. government's official web portal to all federal, state and local government web resources and services.